createdAt,value
2019-04-19T05:46:34.984Z,99.90
2019-04-19T05:48:50.755Z,99.90
2019-04-19T05:51:41.272Z,99.90
2019-04-19T05:53:48.157Z,99.90
2019-04-19T05:56:13.806Z,99.90
2019-04-19T05:58:55.850Z,99.90
2019-04-19T06:01:30.414Z,99.90
2019-04-19T06:03:58.595Z,99.70
2019-04-19T06:06:37.822Z,99.00
2019-04-19T06:08:45.644Z,98.90
2019-04-19T06:11:21.240Z,99.90
2019-04-19T06:13:55.862Z,98.80
2019-04-19T06:16:37.810Z,97.20
2019-04-19T06:19:11.028Z,94.80
2019-04-19T06:21:36.744Z,97.00
2019-04-19T06:24:17.948Z,96.30
2019-04-19T06:29:10.618Z,94.00
2019-04-19T06:31:48.889Z,94.50
2019-04-19T06:34:18.706Z,93.70
2019-04-19T06:36:23.119Z,93.40
2019-04-19T06:38:52.751Z,93.30
2019-04-19T06:41:25.452Z,92.70
2019-04-19T06:44:07.900Z,92.90
2019-04-19T06:46:36.125Z,91.10
2019-04-19T06:48:59.612Z,91.50
2019-04-19T06:51:31.665Z,91.00
2019-04-19T06:53:59.938Z,91.30
2019-04-19T06:56:30.079Z,92.10
2019-04-19T06:59:06.155Z,91.50
2019-04-19T07:01:33.646Z,90.60
2019-04-19T07:03:53.948Z,91.30
2019-04-19T07:06:36.250Z,91.00
2019-04-19T07:09:33.435Z,92.70
2019-04-19T07:11:46.392Z,88.50
2019-04-19T07:14:06.794Z,91.10
2019-04-19T07:16:49.875Z,90.30
2019-04-19T07:19:23.069Z,88.80
2019-04-19T07:21:48.229Z,90.40
2019-04-19T07:24:23.633Z,90.70
2019-04-19T07:26:46.809Z,87.40
2019-04-19T07:28:59.992Z,89.00
2019-04-19T07:31:30.071Z,89.90
2019-04-19T07:34:10.479Z,87.20
2019-04-19T07:36:44.622Z,89.00
2019-04-19T07:39:14.704Z,88.60
2019-04-19T07:41:46.354Z,90.00
2019-04-19T07:44:16.093Z,88.40
2019-04-19T07:47:11.424Z,89.30
2019-04-19T07:49:17.403Z,89.30
2019-04-19T07:51:54.827Z,86.50
2019-04-19T07:54:20.223Z,85.00
2019-04-19T07:57:06.336Z,87.30
2019-04-19T08:00:19.044Z,88.70
2019-04-19T08:07:43.500Z,88.70
2019-04-19T08:10:03.925Z,85.30
2019-04-19T08:12:51.923Z,84.20
2019-04-19T08:29:49.138Z,85.60
2019-04-19T08:32:13.220Z,85.20
2019-04-19T08:34:43.130Z,83.80
2019-04-19T08:37:19.777Z,87.20
2019-04-19T08:39:56.817Z,84.30
2019-04-19T08:42:30.997Z,89.70
2019-04-19T08:44:52.700Z,85.50
2019-04-19T08:47:25.317Z,88.20
2019-04-19T08:49:51.217Z,88.00
2019-04-19T08:52:27.333Z,87.60
2019-04-19T08:55:11.098Z,86.00
2019-04-19T08:57:25.496Z,86.00
2019-04-19T09:00:19.082Z,88.70
2019-04-19T09:02:38.228Z,85.90
2019-04-19T09:05:13.190Z,87.80
2019-04-19T09:07:47.323Z,90.20
2019-04-19T09:12:41.136Z,86.60
2019-04-19T09:15:12.519Z,90.20
2019-04-19T09:18:09.278Z,88.00
2019-04-19T09:20:15.666Z,90.80
2019-04-19T09:22:57.058Z,88.30
2019-04-19T09:25:28.680Z,87.00
2019-04-19T09:28:11.383Z,89.20
2019-04-19T09:30:37.942Z,90.00
2019-04-19T09:32:49.907Z,88.10
2019-04-19T09:35:21.699Z,85.80
2019-04-19T09:38:02.621Z,88.10
2019-04-19T09:40:29.361Z,88.70
2019-04-19T09:42:57.506Z,91.20
2019-04-19T09:45:20.984Z,91.00
2019-04-19T09:47:50.318Z,86.10
2019-04-19T09:50:35.908Z,85.00
2019-04-19T09:53:14.824Z,89.80
2019-04-19T09:55:53.576Z,85.60
2019-04-19T09:58:22.528Z,90.10
2019-04-19T10:00:32.357Z,87.70
2019-04-19T10:03:08.841Z,85.50
2019-04-19T10:05:32.801Z,91.30
2019-04-19T10:08:02.117Z,86.50
2019-04-19T10:10:31.229Z,85.10
2019-04-19T10:12:59.946Z,87.00
2019-04-19T10:15:30.139Z,86.20
2019-04-19T10:17:58.800Z,91.30
2019-04-19T10:20:41.042Z,87.40
2019-04-19T10:23:13.401Z,90.20
2019-04-19T10:26:20.317Z,83.90
2019-04-19T10:28:34.497Z,85.40
2019-04-19T10:31:17.618Z,89.70
2019-04-19T10:33:53.185Z,85.10
2019-04-19T10:36:16.767Z,84.80
2019-04-19T10:38:45.568Z,87.20
2019-04-19T10:41:15.642Z,83.80
2019-04-19T10:43:52.906Z,86.70
2019-04-19T10:46:15.110Z,86.70
2019-04-19T10:48:58.152Z,85.80
2019-04-19T10:51:33.304Z,86.00
2019-04-19T10:54:02.348Z,84.70
2019-04-19T10:56:38.610Z,87.50
2019-04-19T10:59:10.337Z,84.00
2019-04-19T11:01:39.129Z,83.50
2019-04-19T11:04:11.026Z,84.30
2019-04-19T11:06:39.785Z,87.20
2019-04-19T11:09:09.018Z,85.00
2019-04-19T11:11:37.778Z,82.90
2019-04-19T11:14:07.986Z,85.20
2019-04-19T11:16:39.554Z,83.60
2019-04-19T11:19:16.765Z,84.80
2019-04-19T11:21:38.488Z,84.00
2019-04-19T11:24:07.479Z,81.80
2019-04-19T11:26:37.321Z,84.00
2019-04-19T11:29:11.069Z,82.00
2019-04-19T11:31:59.881Z,84.10
2019-04-19T11:34:31.371Z,82.80
2019-04-19T11:37:00.158Z,84.40
2019-04-19T11:39:28.821Z,80.30
2019-04-19T11:41:57.392Z,80.70
2019-04-19T11:44:27.710Z,81.30
2019-04-19T11:46:56.238Z,82.90
2019-04-19T11:49:31.251Z,81.20
2019-04-19T11:51:55.321Z,82.50
2019-04-19T11:54:24.230Z,82.10
2019-04-19T11:57:02.173Z,83.20
2019-04-19T11:59:48.836Z,82.50
2019-04-19T12:02:17.821Z,81.10
2019-04-19T12:04:46.777Z,79.80
2019-04-19T12:07:16.543Z,79.90
2019-04-19T12:09:45.132Z,82.00
2019-04-19T12:12:14.896Z,78.70
2019-04-19T12:14:43.995Z,80.30
2019-04-19T12:17:13.261Z,79.80
2019-04-19T12:19:49.683Z,79.40
2019-04-19T12:22:12.900Z,75.70
2019-04-19T12:24:42.655Z,77.90
2019-04-19T12:27:11.682Z,79.20
2019-04-19T12:29:44.983Z,76.40
2019-04-19T12:32:11.742Z,79.40
2019-04-19T12:34:42.594Z,78.60
2019-04-19T12:37:11.244Z,81.40
2019-04-19T12:39:41.002Z,76.00
2019-04-19T12:42:11.384Z,77.30
2019-04-19T12:44:41.798Z,78.10
2019-04-19T12:47:11.079Z,76.60
2019-04-19T12:49:52.045Z,79.80
2019-04-19T12:52:10.194Z,78.50
2019-04-19T12:54:39.311Z,78.30
2019-04-19T12:57:08.027Z,75.50
2019-04-19T12:59:36.491Z,76.30
2019-04-19T13:02:06.593Z,75.40
2019-04-19T13:04:42.765Z,78.40
2019-04-19T13:07:13.109Z,73.70
2019-04-19T13:09:42.337Z,74.80
2019-04-19T13:12:11.095Z,73.40
2019-04-19T13:14:39.735Z,72.50
2019-04-19T13:17:08.432Z,72.80
2019-04-19T13:19:37.472Z,71.90
2019-04-19T13:22:06.100Z,72.30
2019-04-19T13:24:34.658Z,71.00
2019-04-19T13:27:03.364Z,70.80
2019-04-19T13:29:31.959Z,71.70
2019-04-19T13:32:01.800Z,70.80
2019-04-19T13:34:31.520Z,71.60
2019-04-19T13:37:11.393Z,69.90
2019-04-19T13:39:44.361Z,71.60
2019-04-19T13:42:14.898Z,72.10
2019-04-19T13:44:43.491Z,69.50
2019-04-19T13:47:12.991Z,70.50
2019-04-19T13:49:42.391Z,70.40
2019-04-19T13:52:12.488Z,67.80
2019-04-19T13:54:41.247Z,68.30
2019-04-19T13:57:10.130Z,66.40
2019-04-19T13:59:48.282Z,65.00
2019-04-19T14:02:10.582Z,66.80
2019-04-19T14:04:39.708Z,66.00
2019-04-19T14:07:09.493Z,67.50
2019-04-19T14:09:39.223Z,67.60
2019-04-19T14:12:09.122Z,68.30
2019-04-19T14:14:39.020Z,67.20
2019-04-19T14:17:07.885Z,66.90
2019-04-19T14:19:36.747Z,68.00
2019-04-19T14:22:05.363Z,65.70
2019-04-19T14:24:33.916Z,68.50
2019-04-19T14:27:04.004Z,70.10
2019-04-19T14:29:32.990Z,71.20
2019-04-19T14:32:03.077Z,68.60
2019-04-19T14:34:33.489Z,70.70
2019-04-19T14:37:02.539Z,69.10
2019-04-19T14:39:31.057Z,68.90
2019-04-19T14:41:59.601Z,69.10
2019-04-19T14:44:29.870Z,68.30
2019-04-19T14:46:58.972Z,69.40
2019-04-19T14:49:28.808Z,68.70
2019-04-19T14:51:58.046Z,66.90
2019-04-19T14:54:27.789Z,67.70
2019-04-19T14:56:56.603Z,69.10
2019-04-19T14:59:25.260Z,69.60
2019-04-19T15:02:04.884Z,69.20
2019-04-19T15:04:46.727Z,67.30
2019-04-19T15:07:16.598Z,67.60
2019-04-19T15:09:45.882Z,69.00
2019-04-19T15:12:14.488Z,68.10
2019-04-19T15:14:43.097Z,70.40
2019-04-19T15:17:11.668Z,72.30
2019-04-19T15:19:40.127Z,71.50
2019-04-19T15:22:08.726Z,71.20
2019-04-19T15:24:37.356Z,70.50
2019-04-19T15:27:07.151Z,71.00
2019-04-19T15:29:37.354Z,72.10
2019-04-19T15:32:06.353Z,72.30
2019-04-19T15:34:35.917Z,71.60
2019-04-19T15:37:04.696Z,72.10
2019-04-19T15:39:33.689Z,72.40
2019-04-19T15:42:02.779Z,73.20
2019-04-19T15:44:32.777Z,72.50
2019-04-19T15:47:04.273Z,73.00
2019-04-19T15:49:31.812Z,73.40
2019-04-19T15:52:01.813Z,72.10
2019-04-19T15:54:30.609Z,72.90
2019-04-19T15:57:00.380Z,73.30
2019-04-19T15:59:29.090Z,73.00
2019-04-19T16:02:06.155Z,74.70
2019-04-19T16:04:48.171Z,73.40
2019-04-19T16:07:28.187Z,73.80
2019-04-19T16:10:16.558Z,74.30
2019-04-19T16:12:49.467Z,73.20
2019-04-19T16:15:18.100Z,73.90
2019-04-19T16:17:47.930Z,73.40
2019-04-19T16:20:17.676Z,72.20
2019-04-19T16:22:46.386Z,73.50
2019-04-19T16:25:17.031Z,73.70
2019-04-19T16:27:46.794Z,74.70
2019-04-19T16:30:16.486Z,73.40
2019-04-19T16:32:45.501Z,74.40
2019-04-19T16:35:14.248Z,74.20
2019-04-19T16:37:42.883Z,74.40
2019-04-19T16:40:16.326Z,73.50
2019-04-19T16:42:45.481Z,73.10
2019-04-19T16:45:17.699Z,73.00
2019-04-19T16:47:47.275Z,71.90
2019-04-19T16:50:16.518Z,71.70
2019-04-19T16:52:45.202Z,71.90
2019-04-19T16:55:14.265Z,72.60
2019-04-19T16:57:42.843Z,73.40
2019-04-19T17:00:12.999Z,73.00
2019-04-19T17:02:42.979Z,74.00
2019-04-19T17:05:12.652Z,74.10
2019-04-19T17:07:41.640Z,74.20
2019-04-19T17:10:10.442Z,73.20
2019-04-19T17:12:39.662Z,74.70
2019-04-19T17:15:28.302Z,74.30
2019-04-19T17:18:16.798Z,74.20
2019-04-19T17:20:49.976Z,74.30
2019-04-19T17:23:18.916Z,73.50
2019-04-19T17:25:48.666Z,73.80
2019-04-19T17:28:17.276Z,75.10
2019-04-19T17:30:46.833Z,74.50
2019-04-19T17:33:15.349Z,74.90
2019-04-19T17:35:44.145Z,73.90
2019-04-19T17:46:08.520Z,75.40
2019-04-19T17:48:38.869Z,75.80
2019-04-19T17:51:09.624Z,76.30
2019-04-19T17:53:42.685Z,76.60
2019-04-19T17:56:09.234Z,76.00
2019-04-19T17:58:38.205Z,76.10
2019-04-19T18:01:08.318Z,77.00
2019-04-19T18:03:37.413Z,77.20
2019-04-19T18:06:06.063Z,77.10
2019-04-19T18:08:36.153Z,77.40
2019-04-19T18:11:05.499Z,77.20
2019-04-19T18:13:35.225Z,77.40
2019-04-19T18:16:04.658Z,78.70
2019-04-19T18:18:41.247Z,77.70
2019-04-19T18:21:04.336Z,78.50
2019-04-19T18:23:43.074Z,78.80
2019-04-19T18:26:06.505Z,78.80
2019-04-19T18:28:42.546Z,79.20
2019-04-19T18:31:09.531Z,82.00
2019-04-19T18:33:47.974Z,85.00
2019-04-19T18:36:22.183Z,86.20
2019-04-19T18:38:53.742Z,84.90
2019-04-19T18:41:23.183Z,85.10
2019-04-19T18:44:09.106Z,86.10
2019-04-19T18:46:28.945Z,85.80
2019-04-19T18:48:57.927Z,88.30
2019-04-19T18:51:36.062Z,87.20
2019-04-19T18:54:09.886Z,89.00
2019-04-19T18:56:28.737Z,90.00
2019-04-19T18:59:07.934Z,89.60
2019-04-19T19:01:33.060Z,90.20
2019-04-19T19:04:00.068Z,89.00
2019-04-19T19:06:36.746Z,88.90
2019-04-19T19:09:04.652Z,89.70
2019-04-19T19:11:29.954Z,90.30
2019-04-19T19:14:03.015Z,90.00
2019-04-19T19:16:32.594Z,90.60
2019-04-19T19:19:02.634Z,91.10
2019-04-19T19:21:40.664Z,92.00
2019-04-19T19:24:29.163Z,91.60
2019-04-19T19:26:49.234Z,91.70
2019-04-19T19:29:04.643Z,92.00
2019-04-19T19:31:34.858Z,92.70
2019-04-19T19:34:03.855Z,92.80
2019-04-19T19:36:38.349Z,92.70
2019-04-19T19:39:11.343Z,93.20
2019-04-19T19:42:38.945Z,93.10
2019-04-19T19:44:35.081Z,93.50
2019-04-19T19:47:29.421Z,93.60
2019-04-19T19:49:49.013Z,94.00
2019-04-19T19:52:18.743Z,94.30
2019-04-19T19:54:59.036Z,94.50
2019-04-19T19:57:27.782Z,93.60
2019-04-19T19:59:45.576Z,94.40
2019-04-19T20:02:23.543Z,93.70
2019-04-19T20:04:44.052Z,93.50
2019-04-19T20:07:20.693Z,93.90
2019-04-19T20:09:56.544Z,93.90
2019-04-19T20:12:26.373Z,93.40
2019-04-19T20:14:56.155Z,93.30
2019-04-19T20:17:21.476Z,93.20
2019-04-19T20:19:51.598Z,92.30
2019-04-19T20:22:21.154Z,92.90
2019-04-19T20:25:02.300Z,93.00
2019-04-19T20:27:33.472Z,93.00
2019-04-19T20:29:59.967Z,93.20
2019-04-19T20:32:26.546Z,92.90
2019-04-19T20:35:06.900Z,93.50
2019-04-19T20:37:33.123Z,93.60
2019-04-19T20:40:07.211Z,94.20
2019-04-19T20:42:55.435Z,94.70
2019-04-19T20:45:10.615Z,94.80
2019-04-19T20:47:35.987Z,95.20
2019-04-19T20:50:21.634Z,95.00
2019-04-19T20:52:51.693Z,95.60
2019-04-19T20:55:35.595Z,95.50
2019-04-19T20:58:03.409Z,95.50
2019-04-19T21:00:32.791Z,95.60
2019-04-19T21:02:59.264Z,96.10
2019-04-19T21:05:34.735Z,96.00
2019-04-19T21:08:04.910Z,95.50
2019-04-19T21:10:31.786Z,95.00
2019-04-19T21:13:02.987Z,95.00
2019-04-19T21:15:34.934Z,94.80
2019-04-19T21:18:01.312Z,95.20
2019-04-19T21:20:31.273Z,94.60
2019-04-19T21:23:07.098Z,95.70
2019-04-19T21:25:38.656Z,94.80
2019-04-19T21:28:03.175Z,94.50
2019-04-19T21:30:31.704Z,94.40
2019-04-19T21:33:04.822Z,94.10
2019-04-19T21:35:31.691Z,94.10
2019-04-19T21:38:05.732Z,92.80
2019-04-19T21:40:36.180Z,93.30
2019-04-19T21:43:05.493Z,92.90
2019-04-19T21:45:40.080Z,93.00
2019-04-19T21:48:03.355Z,93.20
2019-04-19T21:50:39.464Z,93.20
2019-04-19T21:53:07.601Z,94.00
2019-04-19T21:55:37.434Z,94.10
2019-04-19T21:58:08.918Z,93.20
2019-04-19T22:00:39.083Z,93.60
2019-04-19T22:03:13.875Z,93.40
2019-04-19T22:05:39.196Z,94.60
2019-04-19T22:08:08.087Z,94.70
2019-04-19T22:10:41.839Z,93.50
2019-04-19T22:13:08.365Z,93.70
2019-04-19T22:15:43.962Z,94.00
2019-04-19T22:18:11.706Z,94.80
2019-04-19T22:20:40.911Z,94.90
2019-04-19T22:23:12.655Z,94.80
2019-04-19T22:25:53.662Z,94.50
2019-04-19T22:28:17.362Z,95.50
2019-04-19T22:30:49.943Z,94.10
2019-04-19T22:33:16.522Z,93.90
2019-04-19T22:35:52.004Z,93.60
2019-04-19T22:38:19.244Z,94.10
2019-04-19T22:40:48.998Z,93.70
2019-04-19T22:43:23.108Z,93.40
2019-04-19T22:45:57.402Z,92.90
2019-04-19T22:48:23.621Z,93.30
2019-04-19T22:53:46.326Z,91.90
2019-04-19T22:56:34.703Z,91.60
2019-04-19T23:02:20.499Z,91.40
2019-04-19T23:05:06.858Z,90.80
2019-04-19T23:09:09.880Z,91.10
2019-04-19T23:10:06.661Z,91.90
2019-04-19T23:12:37.624Z,92.30
2019-04-19T23:15:14.530Z,92.20
2019-04-19T23:17:41.124Z,93.10
2019-04-19T23:20:09.530Z,92.80
2019-04-19T23:22:44.266Z,92.90
2019-04-19T23:25:11.668Z,93.60
2019-04-19T23:27:56.220Z,93.70
2019-04-19T23:33:39.879Z,94.30
2019-04-19T23:36:14.471Z,94.90
2019-04-19T23:42:33.270Z,94.40
2019-04-19T23:45:03.974Z,94.70
2019-04-19T23:47:37.758Z,94.50
2019-04-19T23:50:04.037Z,95.60
2019-04-19T23:52:55.707Z,95.60
